createdAt,value
2016-06-13T00:00:11.965Z,54.95
2016-06-13T00:01:11.969Z,54.95
2016-06-13T00:02:11.988Z,54.95
2016-06-13T00:03:12.005Z,54.95
2016-06-13T00:04:12.008Z,54.85
2016-06-13T00:05:12.012Z,54.95
2016-06-13T00:06:12.031Z,55.05
2016-06-13T00:07:12.034Z,55.05
2016-06-13T00:08:12.052Z,55.05
2016-06-13T00:09:12.071Z,55.05
2016-06-13T00:10:12.074Z,54.95
2016-06-13T00:11:12.140Z,54.95
2016-06-13T00:12:12.096Z,54.85
2016-06-13T00:13:12.100Z,55.05
2016-06-13T00:14:12.102Z,54.85
2016-06-13T00:15:12.121Z,55.05
2016-06-13T00:16:12.139Z,55.05
2016-06-13T00:17:12.159Z,54.95
2016-06-13T00:18:12.318Z,54.95
2016-06-13T00:19:12.164Z,54.95
2016-06-13T00:20:12.199Z,54.95
2016-06-13T00:21:12.186Z,54.85
2016-06-13T00:22:12.205Z,55.05
2016-06-13T00:23:12.224Z,55.05
2016-06-13T00:24:12.228Z,55.05
2016-06-13T00:25:12.230Z,54.95
2016-06-13T00:26:12.295Z,55.05
2016-06-13T00:27:12.251Z,54.95
2016-06-13T00:28:12.270Z,55.05
2016-06-13T00:29:12.274Z,54.95
2016-06-13T00:30:12.276Z,54.95
2016-06-13T00:31:12.295Z,54.95
2016-06-13T00:32:12.314Z,55.05
2016-06-13T00:33:12.333Z,55.05
2016-06-13T00:34:12.320Z,55.05
2016-06-13T00:35:12.183Z,55.05
2016-06-13T00:36:12.342Z,54.95
2016-06-13T00:37:12.360Z,54.95
2016-06-13T00:38:12.363Z,55.05
2016-06-13T00:39:12.382Z,54.95
2016-06-13T00:40:12.386Z,54.95
2016-06-13T00:41:12.872Z,54.95
2016-06-13T00:42:12.407Z,54.85
2016-06-13T00:43:12.426Z,54.95
2016-06-13T00:44:12.429Z,54.95
2016-06-13T00:45:12.447Z,54.95
2016-06-13T00:46:12.451Z,55.05
2016-06-13T00:47:12.328Z,54.95
2016-06-13T00:48:12.488Z,54.95
2016-06-13T00:49:12.491Z,54.95
2016-06-13T00:50:12.494Z,54.95
2016-06-13T00:51:12.513Z,55.05
2016-06-13T00:52:12.516Z,54.95
2016-06-13T00:53:12.534Z,54.95
2016-06-13T00:54:12.538Z,54.95
2016-06-13T00:55:12.556Z,54.95
2016-06-13T00:56:12.857Z,54.95
2016-06-13T00:57:12.579Z,54.95
2016-06-13T00:58:12.582Z,55.05
2016-06-13T00:59:12.585Z,54.95
2016-06-13T01:00:12.603Z,54.95
2016-06-13T01:01:12.606Z,54.95
2016-06-13T01:02:12.656Z,55.05
2016-06-13T01:03:12.644Z,55.05
2016-06-13T01:04:12.662Z,55.05
2016-06-13T01:05:12.494Z,55.05
2016-06-13T01:06:12.512Z,54.95
2016-06-13T01:07:12.671Z,54.95
2016-06-13T01:08:12.691Z,54.95
2016-06-13T01:09:12.693Z,55.05
2016-06-13T01:10:12.711Z,55.05
2016-06-13T01:11:12.730Z,55.05
2016-06-13T01:12:12.687Z,54.95
2016-06-13T01:13:12.737Z,54.95
2016-06-13T01:14:12.755Z,54.95
2016-06-13T01:15:12.759Z,55.05
2016-06-13T01:16:12.777Z,54.95
2016-06-13T01:17:12.796Z,54.95
2016-06-13T01:18:12.799Z,54.95
2016-06-13T01:19:12.802Z,54.95
2016-06-13T01:20:12.821Z,55.05
2016-06-13T01:21:12.824Z,54.95
2016-06-13T01:22:12.843Z,54.95
2016-06-13T01:23:12.846Z,54.93
2016-06-13T01:24:12.848Z,55.05
2016-06-13T01:25:12.867Z,54.95
2016-06-13T01:26:13.573Z,54.95
2016-06-13T01:27:12.921Z,55.05
2016-06-13T01:28:12.908Z,54.95
2016-06-13T01:29:12.911Z,54.95
2016-06-13T01:30:12.930Z,54.85
2016-06-13T01:31:12.933Z,54.95
2016-06-13T01:32:12.951Z,54.95
2016-06-13T01:33:12.954Z,54.85
2016-06-13T01:34:12.974Z,54.95
2016-06-13T01:35:12.976Z,55.05
2016-06-13T01:36:12.995Z,54.95
2016-06-13T01:37:12.999Z,54.95
2016-06-13T01:38:13.017Z,54.85
2016-06-13T01:39:13.020Z,54.95
2016-06-13T01:40:13.038Z,54.95
2016-06-13T01:41:13.042Z,55.05
2016-06-13T01:42:13.045Z,54.75
2016-06-13T01:43:13.063Z,54.95
2016-06-13T01:44:13.066Z,54.95
2016-06-13T01:45:13.086Z,54.95
2016-06-13T01:46:13.088Z,54.85
2016-06-13T01:47:13.107Z,54.95
2016-06-13T01:48:13.125Z,54.95
2016-06-13T01:49:13.128Z,54.95
2016-06-13T01:50:13.132Z,54.95
2016-06-13T01:51:13.150Z,55.05
2016-06-13T01:52:13.169Z,55.05
2016-06-13T01:53:13.172Z,54.95
2016-06-13T01:54:13.176Z,54.95
2016-06-13T01:55:13.193Z,55.05
2016-06-13T01:56:13.197Z,55.05
2016-06-13T01:57:13.200Z,54.95
2016-06-13T01:58:13.219Z,55.05
2016-06-13T01:59:13.237Z,55.05
2016-06-13T02:00:13.240Z,55.15
2016-06-13T02:01:13.260Z,54.95
2016-06-13T02:02:13.262Z,54.95
2016-06-13T02:03:13.281Z,55.15
2016-06-13T02:04:13.300Z,55.05
2016-06-13T02:05:13.302Z,55.05
2016-06-13T02:06:13.306Z,55.05
2016-06-13T02:07:13.325Z,55.05
2016-06-13T02:08:13.327Z,55.05
2016-06-13T02:09:13.362Z,55.05
2016-06-13T02:10:13.350Z,55.05
2016-06-13T02:11:13.384Z,55.15
2016-06-13T02:12:13.371Z,55.15
2016-06-13T02:13:13.390Z,55.15
2016-06-13T02:14:13.393Z,55.15
2016-06-13T02:15:13.397Z,55.05
2016-06-13T02:16:13.414Z,55.05
2016-06-13T02:17:13.417Z,55.21
2016-06-13T02:18:13.436Z,55.15
2016-06-13T02:19:13.440Z,55.15
2016-06-13T02:20:13.459Z,55.15
2016-06-13T02:21:13.462Z,55.24
2016-06-13T02:22:13.480Z,55.15
2016-06-13T02:23:13.483Z,54.95
2016-06-13T02:24:13.502Z,55.24
2016-06-13T02:25:13.505Z,55.15
2016-06-13T02:26:13.852Z,55.24
2016-06-13T02:27:13.386Z,55.05
2016-06-13T02:28:13.545Z,54.95
2016-06-13T02:29:13.549Z,55.15
2016-06-13T02:30:13.567Z,55.15
2016-06-13T02:31:13.571Z,55.05
2016-06-13T02:32:13.589Z,55.05
2016-06-13T02:33:13.592Z,55.05
2016-06-13T02:34:13.610Z,55.05
2016-06-13T02:35:13.614Z,55.11
2016-06-13T02:36:13.633Z,55.11
2016-06-13T02:37:13.636Z,55.15
2016-06-13T02:38:13.639Z,55.02
2016-06-13T02:39:13.657Z,55.24
2016-06-13T02:40:13.676Z,55.05
2016-06-13T02:41:13.679Z,55.05
2016-06-13T02:42:13.682Z,54.93
2016-06-13T02:43:13.702Z,55.21
2016-06-13T02:44:13.705Z,55.11
2016-06-13T02:45:13.722Z,55.02
2016-06-13T02:46:13.726Z,55.02
2016-06-13T02:47:13.745Z,55.11
2016-06-13T02:48:13.748Z,55.05
2016-06-13T02:49:13.765Z,55.02
2016-06-13T02:50:13.768Z,55.02
2016-06-13T02:51:13.788Z,55.15
2016-06-13T02:52:13.791Z,55.02
2016-06-13T02:53:13.810Z,54.93
2016-06-13T02:54:13.813Z,55.02
2016-06-13T02:55:13.832Z,55.15
2016-06-13T02:56:13.928Z,55.11
2016-06-13T02:57:13.853Z,55.02
2016-06-13T02:58:13.857Z,55.15
2016-06-13T02:59:13.876Z,55.11
2016-06-13T03:00:13.722Z,55.02
2016-06-13T03:01:13.896Z,55.31
2016-06-13T03:02:13.900Z,54.93
2016-06-13T03:03:13.919Z,55.05
2016-06-13T03:04:13.922Z,55.11
2016-06-13T03:05:13.940Z,55.11
2016-06-13T03:06:13.943Z,55.02
2016-06-13T03:07:13.962Z,54.95
2016-06-13T03:08:13.966Z,55.02
2016-06-13T03:09:13.968Z,55.02
2016-06-13T03:10:13.987Z,55.02
2016-06-13T03:11:14.678Z,55.11
2016-06-13T03:12:14.009Z,55.05
2016-06-13T03:13:14.027Z,55.15
2016-06-13T03:14:14.031Z,54.93
2016-06-13T03:15:14.065Z,55.02
2016-06-13T03:16:14.052Z,55.11
2016-06-13T03:17:14.056Z,55.15
2016-06-13T03:18:14.074Z,55.11
2016-06-13T03:19:14.093Z,55.11
2016-06-13T03:20:14.096Z,55.11
2016-06-13T03:21:14.115Z,55.05
2016-06-13T03:22:14.117Z,54.95
2016-06-13T03:23:14.120Z,55.05
2016-06-13T03:24:14.139Z,54.93
2016-06-13T03:25:14.143Z,55.02
2016-06-13T03:26:14.161Z,55.11
2016-06-13T03:27:14.186Z,54.93
2016-06-13T03:28:14.245Z,55.11
2016-06-13T03:29:14.288Z,55.15
2016-06-13T03:30:14.348Z,55.05
2016-06-13T03:31:14.391Z,55.02
2016-06-13T03:32:14.437Z,55.11
2016-06-13T03:33:14.453Z,55.11
2016-06-13T03:34:14.486Z,55.05
2016-06-13T03:35:14.503Z,55.02
2016-06-13T03:36:14.521Z,55.02
2016-06-13T03:37:14.549Z,55.11
2016-06-13T03:38:14.557Z,54.95
2016-06-13T03:39:14.581Z,55.11
2016-06-13T03:40:14.605Z,55.02
2016-06-13T03:41:14.958Z,55.11
2016-06-13T03:42:14.464Z,55.15
2016-06-13T03:43:14.641Z,55.11
2016-06-13T03:44:14.661Z,54.93
2016-06-13T03:45:14.666Z,55.11
2016-06-13T03:46:14.687Z,55.02
2016-06-13T03:47:14.692Z,55.02
2016-06-13T03:48:14.712Z,55.02
2016-06-13T03:49:14.715Z,54.95
2016-06-13T03:50:14.734Z,54.95
2016-06-13T03:51:14.738Z,54.95
2016-06-13T03:52:14.758Z,54.95
2016-06-13T03:53:14.760Z,55.05
2016-06-13T03:54:14.764Z,55.05
2016-06-13T03:55:14.781Z,55.02
2016-06-13T03:56:15.551Z,55.21
2016-06-13T03:57:14.804Z,55.02
2016-06-13T03:58:14.807Z,54.85
2016-06-13T03:59:14.826Z,55.05
2016-06-13T04:00:14.829Z,55.05
2016-06-13T04:01:14.832Z,55.02
2016-06-13T04:02:14.850Z,55.02
2016-06-13T04:03:14.870Z,54.95
2016-06-13T04:04:14.872Z,55.05
2016-06-13T04:05:14.892Z,54.95
2016-06-13T04:06:14.894Z,55.02
2016-06-13T04:07:14.898Z,54.95
2016-06-13T04:08:14.760Z,55.05
2016-06-13T04:09:14.934Z,54.93
2016-06-13T04:10:14.938Z,55.05
2016-06-13T04:11:14.941Z,55.15
2016-06-13T04:12:14.959Z,55.15
2016-06-13T04:13:14.978Z,54.93
2016-06-13T04:14:14.981Z,55.05
2016-06-13T04:15:15.000Z,55.11
2016-06-13T04:16:15.004Z,55.05
2016-06-13T04:17:15.006Z,55.15
2016-06-13T04:18:15.024Z,55.15
2016-06-13T04:19:15.028Z,55.15
2016-06-13T04:20:15.047Z,55.24
2016-06-13T04:21:15.065Z,55.05
2016-06-13T04:22:15.068Z,55.15
2016-06-13T04:23:15.071Z,54.95
2016-06-13T04:24:15.090Z,55.05
2016-06-13T04:25:15.093Z,55.02
2016-06-13T04:26:15.111Z,55.15
2016-06-13T04:27:15.802Z,55.05
2016-06-13T04:28:15.133Z,54.95
2016-06-13T04:29:15.152Z,55.05
2016-06-13T04:30:15.155Z,55.05
2016-06-13T04:31:15.456Z,55.15
2016-06-13T04:32:15.411Z,55.05
2016-06-13T04:33:15.180Z,55.05
2016-06-13T04:34:15.198Z,55.05
2016-06-13T04:35:15.201Z,55.05
2016-06-13T04:36:15.221Z,55.15
2016-06-13T04:37:15.223Z,55.05
2016-06-13T04:38:15.227Z,55.15
2016-06-13T04:39:15.449Z,55.24
2016-06-13T04:40:15.249Z,55.15
2016-06-13T04:41:15.267Z,55.05
2016-06-13T04:42:15.630Z,55.15
2016-06-13T04:43:15.289Z,55.05
2016-06-13T04:44:15.293Z,54.85
2016-06-13T04:45:15.310Z,54.95
2016-06-13T04:46:15.157Z,54.85
2016-06-13T04:47:15.630Z,54.95
2016-06-13T04:48:15.585Z,55.05
2016-06-13T04:49:15.354Z,55.05
2016-06-13T04:50:15.357Z,55.05
2016-06-13T04:51:15.611Z,54.95
2016-06-13T04:52:15.582Z,54.95
2016-06-13T04:53:15.398Z,54.95
2016-06-13T04:54:15.401Z,54.85
2016-06-13T04:55:15.607Z,54.95
2016-06-13T04:56:15.516Z,54.95
2016-06-13T04:57:15.489Z,54.85
2016-06-13T04:58:15.601Z,54.95
2016-06-13T04:59:15.463Z,55.05
2016-06-13T05:00:15.466Z,54.85
2016-06-13T05:01:15.501Z,54.95
2016-06-13T05:02:15.785Z,54.95
2016-06-13T05:03:15.507Z,54.95
2016-06-13T05:04:15.557Z,54.95
2016-06-13T05:05:15.528Z,54.95
2016-06-13T05:06:15.532Z,54.95
2016-06-13T05:07:15.644Z,54.95
2016-06-13T05:08:15.553Z,54.95
2016-06-13T05:09:15.572Z,54.95
2016-06-13T05:10:15.919Z,54.85
2016-06-13T05:11:15.594Z,54.95
2016-06-13T05:12:15.597Z,55.05
2016-06-13T05:13:15.631Z,54.95
2016-06-13T05:14:15.869Z,55.05
2016-06-13T05:15:15.622Z,54.95
2016-06-13T05:16:15.640Z,55.05
2016-06-13T05:17:15.488Z,54.85
2016-06-13T05:18:15.678Z,54.85
2016-06-13T05:19:15.665Z,54.95
2016-06-13T05:20:15.731Z,54.85
2016-06-13T05:21:15.687Z,54.95
2016-06-13T05:22:15.706Z,54.95
2016-06-13T05:23:15.709Z,54.95
2016-06-13T05:24:15.915Z,54.85
2016-06-13T05:25:15.777Z,54.85
2016-06-13T05:26:15.766Z,54.95
2016-06-13T05:27:15.769Z,55.05
2016-06-13T05:28:15.755Z,54.85
2016-06-13T05:29:16.086Z,54.95
2016-06-13T05:30:15.778Z,54.85
2016-06-13T05:31:16.046Z,54.95
2016-06-13T05:32:15.815Z,54.95
2016-06-13T05:33:15.818Z,54.95
2016-06-13T05:34:15.821Z,54.85
2016-06-13T05:35:16.136Z,54.95
2016-06-13T05:36:15.889Z,55.05
2016-06-13T05:37:15.861Z,54.85
2016-06-13T05:38:15.880Z,55.05
2016-06-13T05:39:16.039Z,54.95
2016-06-13T05:40:15.886Z,54.85
2016-06-13T05:41:16.201Z,54.95
2016-06-13T05:42:15.955Z,54.95
2016-06-13T05:43:16.146Z,54.95
2016-06-13T05:44:16.242Z,54.95
2016-06-13T05:45:15.949Z,54.95
2016-06-13T05:46:16.311Z,54.95
2016-06-13T05:47:15.970Z,54.95
2016-06-13T05:48:15.973Z,54.95
2016-06-13T05:49:16.086Z,54.85
2016-06-13T05:50:15.839Z,54.95
2016-06-13T05:51:16.013Z,54.95
2016-06-13T05:52:16.220Z,55.05
2016-06-13T05:53:16.035Z,55.05
2016-06-13T05:54:16.039Z,54.95
2016-06-13T05:55:16.245Z,54.95
2016-06-13T05:56:16.169Z,54.85
2016-06-13T05:57:16.095Z,54.95
2016-06-13T05:58:16.285Z,55.05
2016-06-13T05:59:15.945Z,54.95
2016-06-13T06:00:16.104Z,54.95
2016-06-13T06:01:16.215Z,55.05
2016-06-13T06:02:16.126Z,55.05
2016-06-13T06:03:16.144Z,54.95
2016-06-13T06:04:16.147Z,55.05
2016-06-13T06:05:16.166Z,54.95
2016-06-13T06:06:16.170Z,54.95
2016-06-13T06:07:16.234Z,54.95
2016-06-13T06:08:16.190Z,54.95
2016-06-13T06:09:16.037Z,55.15
2016-06-13T06:10:16.416Z,55.05
2016-06-13T06:11:16.232Z,55.05
2016-06-13T06:12:16.249Z,54.11
2016-06-13T06:13:16.253Z,53.75
2016-06-13T06:14:16.256Z,52.87
2016-06-13T06:15:16.259Z,52.9
2016-06-13T06:16:16.262Z,53.41
2016-06-13T06:17:16.281Z,52.83
2016-06-13T06:18:16.300Z,54.48
2016-06-13T06:19:16.303Z,53.89
2016-06-13T06:20:16.321Z,54.19
2016-06-13T06:21:16.324Z,53.41
2016-06-13T06:22:16.327Z,53.53
2016-06-13T06:23:16.362Z,53.83
2016-06-13T06:24:16.365Z,53.41
2016-06-13T06:25:16.367Z,53.31
2016-06-13T06:26:16.387Z,53.41
2016-06-13T06:27:16.406Z,53.05
2016-06-13T06:28:16.409Z,53.24
2016-06-13T06:29:16.412Z,53.15
2016-06-13T06:30:16.430Z,53.53
2016-06-13T06:31:16.433Z,53.24
2016-06-13T06:32:16.436Z,53.44
2016-06-13T06:33:16.455Z,53.44
2016-06-13T06:34:16.475Z,53.63
2016-06-13T06:35:16.478Z,53.53
2016-06-13T06:36:16.496Z,53.63
2016-06-13T06:37:16.498Z,53.34
2016-06-13T06:38:16.501Z,53.34
2016-06-13T06:39:16.521Z,53.34
2016-06-13T06:40:16.524Z,53.44
2016-06-13T06:41:16.542Z,53.83
2016-06-13T06:42:16.561Z,53.53
2016-06-13T06:43:16.564Z,53.83
2016-06-13T06:44:16.583Z,53.44
2016-06-13T06:45:16.586Z,53.44
2016-06-13T06:46:16.448Z,53.83
2016-06-13T06:47:16.655Z,53.34
2016-06-13T06:48:16.610Z,54.5
2016-06-13T06:49:16.630Z,54.21
2016-06-13T06:50:16.632Z,54.31
2016-06-13T06:51:16.652Z,54.41
2016-06-13T06:52:16.670Z,53.53
2016-06-13T06:53:16.673Z,53.83
2016-06-13T06:54:16.692Z,53.53
2016-06-13T06:55:16.694Z,53.44
2016-06-13T06:56:16.698Z,53.24
2016-06-13T06:57:16.716Z,54.02
2016-06-13T06:58:16.719Z,53.34
2016-06-13T06:59:16.738Z,54.21
2016-06-13T07:00:16.741Z,54.02
2016-06-13T07:01:16.761Z,54.09
2016-06-13T07:02:16.763Z,55.26
2016-06-13T07:03:16.781Z,55.32
2016-06-13T07:04:16.801Z,55.13
2016-06-13T07:05:16.804Z,55.32
2016-06-13T07:06:16.823Z,55.2
2016-06-13T07:07:16.826Z,55.1
2016-06-13T07:08:16.829Z,54.91
2016-06-13T07:09:16.878Z,55
2016-06-13T07:10:16.850Z,55.1
2016-06-13T07:11:16.884Z,54.74
2016-06-13T07:12:17.091Z,54.33
2016-06-13T07:13:16.890Z,54.52
2016-06-13T07:14:16.894Z,53.97
2016-06-13T07:15:16.740Z,54.52
2016-06-13T07:16:16.916Z,54.62
2016-06-13T07:17:16.919Z,55.1
2016-06-13T07:18:16.922Z,55.1
2016-06-13T07:19:16.941Z,55.1
2016-06-13T07:20:16.943Z,55.1
2016-06-13T07:21:16.962Z,55.2
2016-06-13T07:22:16.965Z,54.91
2016-06-13T07:23:16.968Z,55.1
2016-06-13T07:24:16.987Z,55.17
2016-06-13T07:25:16.991Z,55.17
2016-06-13T07:26:17.009Z,55.56
2016-06-13T07:27:17.090Z,55.66
2016-06-13T07:28:17.422Z,55.56
2016-06-13T07:29:17.034Z,56.02
2016-06-13T07:30:17.036Z,56.11
2016-06-13T07:31:17.055Z,56.5
2016-06-13T07:32:17.058Z,55.92
2016-06-13T07:33:17.062Z,55.85
2016-06-13T07:34:17.079Z,55.94
2016-06-13T07:35:17.083Z,56.04
2016-06-13T07:36:17.102Z,56.72
2016-06-13T07:37:17.105Z,57.56
2016-06-13T07:38:17.108Z,58.31
2016-06-13T07:39:17.127Z,58.5
2016-06-13T07:40:17.130Z,58.7
2016-06-13T07:41:17.149Z,58.37
2016-06-13T07:42:17.214Z,58.4
2016-06-13T07:43:17.171Z,58.4
2016-06-13T07:44:17.174Z,59.28
2016-06-13T07:45:17.176Z,59.56
2016-06-13T07:46:17.195Z,59.18
2016-06-13T07:47:17.245Z,58.6
2016-06-13T07:48:17.202Z,59.31
2016-06-13T07:49:17.220Z,59.5
2016-06-13T07:50:17.239Z,59.18
2016-06-13T07:51:17.226Z,58.82
2016-06-13T07:52:17.245Z,59.08
2016-06-13T07:53:17.249Z,59.69
2016-06-13T07:54:17.251Z,59.76
2016-06-13T07:55:17.285Z,59.76
2016-06-13T07:56:17.273Z,60.24
2016-06-13T07:57:17.776Z,60.21
2016-06-13T07:58:17.294Z,60.41
2016-06-13T07:59:17.142Z,60.14
2016-06-13T08:00:17.317Z,59.18
2016-06-13T08:01:17.320Z,59.69
2016-06-13T08:02:17.323Z,60.37
2016-06-13T08:03:17.341Z,59.95
2016-06-13T08:04:17.344Z,60.53
2016-06-13T08:05:17.347Z,60.24
2016-06-13T08:06:17.366Z,60.21
2016-06-13T08:07:17.369Z,60.24
2016-06-13T08:08:17.372Z,60.14
2016-06-13T08:09:17.392Z,59.28
2016-06-13T08:10:17.394Z,59.56
2016-06-13T08:11:17.412Z,59.5
2016-06-13T08:12:17.744Z,59.86
2016-06-13T08:13:17.435Z,59.76
2016-06-13T08:14:17.421Z,58.72
2016-06-13T08:15:17.441Z,58.85
2016-06-13T08:16:17.443Z,57.98
2016-06-13T08:17:17.447Z,57.53
2016-06-13T08:18:17.465Z,57.43
2016-06-13T08:19:17.468Z,56.56
2016-06-13T08:20:17.487Z,56.75
2016-06-13T08:21:17.491Z,56.77
2016-06-13T08:22:17.493Z,56.59
2016-06-13T08:23:17.528Z,56.59
2016-06-13T08:24:17.358Z,56.59
2016-06-13T08:25:17.533Z,56.77
2016-06-13T08:26:17.381Z,56.2
2016-06-13T08:27:18.040Z,56.03
2016-06-13T08:28:17.558Z,55.74
2016-06-13T08:29:17.578Z,56.03
2016-06-13T08:30:17.581Z,55.83
2016-06-13T08:31:17.599Z,55.54
2016-06-13T08:32:17.602Z,55.64
2016-06-13T08:33:17.605Z,55.54
2016-06-13T08:34:17.624Z,55.64
2016-06-13T08:35:17.627Z,55.54
2016-06-13T08:36:17.646Z,55.35
2016-06-13T08:37:17.649Z,55.44
2016-06-13T08:38:17.668Z,55.54
2016-06-13T08:39:17.686Z,55.26
2016-06-13T08:40:17.690Z,55.16
2016-06-13T08:41:17.693Z,55.16
2016-06-13T08:42:17.710Z,55.06
2016-06-13T08:43:17.730Z,55.18
2016-06-13T08:44:17.717Z,55.06
2016-06-13T08:45:17.736Z,55.08
2016-06-13T08:46:17.755Z,55.18
2016-06-13T08:47:17.758Z,55.18
2016-06-13T08:48:17.776Z,54.7
2016-06-13T08:49:17.780Z,54.7
2016-06-13T08:50:17.798Z,54.7
2016-06-13T08:51:17.801Z,54.53
2016-06-13T08:52:17.805Z,54.53
2016-06-13T08:53:17.823Z,54.44
2016-06-13T08:54:17.825Z,54.63
2016-06-13T08:55:17.845Z,54.63
2016-06-13T08:56:17.692Z,54.63
2016-06-13T08:57:17.867Z,54.72
2016-06-13T08:58:17.885Z,54.53
2016-06-13T08:59:17.888Z,54.53
2016-06-13T09:00:17.891Z,54.24
2016-06-13T09:01:17.911Z,54.14
2016-06-13T09:02:17.913Z,54.44
2016-06-13T09:03:17.932Z,54.44
2016-06-13T09:04:17.935Z,54.34
2016-06-13T09:05:17.939Z,54.14
2016-06-13T09:06:17.956Z,54.44
2016-06-13T09:07:17.960Z,54.34
2016-06-13T09:08:17.979Z,54.53
2016-06-13T09:09:17.982Z,54.34
2016-06-13T09:10:18.000Z,54.34
2016-06-13T09:11:18.018Z,54.53
2016-06-13T09:12:18.022Z,54.53
2016-06-13T09:13:18.056Z,54.14
2016-06-13T09:14:18.044Z,54.44
2016-06-13T09:15:18.062Z,54.14
2016-06-13T09:16:18.066Z,54.14
2016-06-13T09:17:18.068Z,54.24
2016-06-13T09:18:18.087Z,53.95
2016-06-13T09:19:18.107Z,53.95
2016-06-13T09:20:18.110Z,53.75
2016-06-13T09:21:18.112Z,53.85
2016-06-13T09:22:18.131Z,53.95
2016-06-13T09:23:18.134Z,53.56
2016-06-13T09:24:18.152Z,54.07
2016-06-13T09:25:18.156Z,54.07
2016-06-13T09:26:18.424Z,54.07
2016-06-13T09:27:18.193Z,54.36
2016-06-13T09:28:18.727Z,53.3
2016-06-13T09:29:18.200Z,53.49
2016-06-13T09:30:18.218Z,54.46
2016-06-13T09:31:18.221Z,53.49
2016-06-13T09:32:18.240Z,54.46
2016-06-13T09:33:18.259Z,53.59
2016-06-13T09:34:18.106Z,53.49
2016-06-13T09:35:18.296Z,54.46
2016-06-13T09:36:18.283Z,53.59
2016-06-13T09:37:18.302Z,53.69
2016-06-13T09:38:18.305Z,54.17
2016-06-13T09:39:18.558Z,54.17
2016-06-13T09:40:18.327Z,54.17
2016-06-13T09:41:18.689Z,54.27
2016-06-13T09:42:18.348Z,54.17
2016-06-13T09:43:18.477Z,54.27
2016-06-13T09:44:18.371Z,54.17
2016-06-13T09:45:18.373Z,53.2
2016-06-13T09:46:18.689Z,53.39
2016-06-13T09:47:18.411Z,53.49
2016-06-13T09:48:18.414Z,53.49
2016-06-13T09:49:18.526Z,53.78
2016-06-13T09:50:18.577Z,53.1
2016-06-13T09:51:18.439Z,53.78
2016-06-13T09:52:18.458Z,53.1
2016-06-13T09:53:18.804Z,53.39
2016-06-13T09:54:18.479Z,53.49
2016-06-13T09:55:18.639Z,53.49
2016-06-13T09:56:18.360Z,53.49
2016-06-13T09:57:18.519Z,53
2016-06-13T09:58:19.070Z,53
2016-06-13T09:59:18.557Z,53.1
2016-06-13T10:00:18.857Z,53.3
2016-06-13T10:01:18.563Z,53.42
2016-06-13T10:02:18.567Z,53.2
2016-06-13T10:03:18.695Z,53.03
2016-06-13T10:04:18.603Z,53
2016-06-13T10:05:18.701Z,53.3
2016-06-13T10:06:18.626Z,53.39
2016-06-13T10:07:18.769Z,53.61
2016-06-13T10:08:18.991Z,53.3
2016-06-13T10:09:18.651Z,53.2
2016-06-13T10:10:18.669Z,53.52
2016-06-13T10:11:18.672Z,53.49
2016-06-13T10:12:18.691Z,52.91
2016-06-13T10:13:18.804Z,53.3
2016-06-13T10:14:18.712Z,53.49
2016-06-13T10:15:18.778Z,53.39
2016-06-13T10:16:18.750Z,53.52
2016-06-13T10:17:18.753Z,53.03
2016-06-13T10:18:18.756Z,53.59
2016-06-13T10:19:18.774Z,53.49
2016-06-13T10:20:32.919Z,53.59
2016-06-13T10:21:18.781Z,53.59
2016-06-13T10:22:18.800Z,52.91
2016-06-13T10:23:18.865Z,52.94
2016-06-13T10:24:18.822Z,53.2
2016-06-13T10:25:18.840Z,53.1
2016-06-13T10:26:18.890Z,53.2
2016-06-13T10:27:18.908Z,53.03
2016-06-13T10:28:19.569Z,53.03
2016-06-13T10:29:19.134Z,53
2016-06-13T10:30:18.902Z,52.84
2016-06-13T10:31:18.890Z,53.42
2016-06-13T10:32:18.909Z,52.84
2016-06-13T10:33:18.927Z,53
2016-06-13T10:34:18.930Z,53.22
2016-06-13T10:35:18.950Z,52.94
2016-06-13T10:36:18.952Z,52.94
2016-06-13T10:37:18.971Z,53.22
2016-06-13T10:38:18.974Z,53.22
2016-06-13T10:39:19.195Z,53.13
2016-06-13T10:40:18.995Z,53.13
2016-06-13T10:41:19.312Z,52.94
2016-06-13T10:42:19.033Z,53.03
2016-06-13T10:43:19.411Z,53.03
2016-06-13T10:44:19.054Z,52.84
2016-06-13T10:45:19.324Z,52.84
2016-06-13T10:46:19.092Z,52.84
2016-06-13T10:47:19.220Z,53.42
2016-06-13T10:48:19.130Z,52.94
2016-06-13T10:49:19.101Z,52.74
2016-06-13T10:50:19.386Z,52.45
2016-06-13T10:51:19.123Z,52.45
2016-06-13T10:52:19.438Z,52.35
2016-06-13T10:53:19.160Z,52.55
2016-06-13T10:54:19.163Z,52.55
2016-06-13T10:55:19.370Z,52.55
2016-06-13T10:56:19.186Z,52.55
2016-06-13T10:57:19.345Z,52.06
2016-06-13T10:58:19.254Z,52.28
2016-06-13T10:59:19.226Z,52.45
2016-06-13T11:00:19.213Z,52.28
2016-06-13T11:01:33.388Z,52.28
2016-06-13T11:02:19.251Z,51.97
2016-06-13T11:03:19.410Z,51.99
2016-06-13T11:04:19.272Z,51.97
2016-06-13T11:05:19.432Z,52.67
2016-06-13T11:06:19.311Z,52.55
2016-06-13T11:07:19.329Z,52.47
2016-06-13T11:08:19.473Z,52.45
2016-06-13T11:09:19.335Z,52.25
2016-06-13T11:10:19.338Z,52.25
2016-06-13T11:11:19.341Z,52.25
2016-06-13T11:12:19.360Z,52.55
2016-06-13T11:13:19.503Z,52.45
2016-06-13T11:14:19.397Z,52.45
2016-06-13T11:15:19.697Z,52.45
2016-06-13T11:16:19.403Z,52.55
2016-06-13T11:17:19.422Z,52.55
2016-06-13T11:18:19.425Z,52.64
2016-06-13T11:19:19.428Z,52.64
2016-06-13T11:20:19.447Z,52.55
2016-06-13T11:21:19.450Z,52.45
2016-06-13T11:22:19.469Z,52.64
2016-06-13T11:23:19.315Z,52.64
2016-06-13T11:24:19.491Z,52.15
2016-06-13T11:25:19.494Z,52.35
2016-06-13T11:26:19.512Z,52.55
2016-06-13T11:27:19.531Z,52.25
2016-06-13T11:28:19.534Z,52.15
2016-06-13T11:29:19.552Z,51.97
2016-06-13T11:30:20.634Z,51.99
2016-06-13T11:31:19.574Z,51.97
2016-06-13T11:32:19.577Z,51.97
2016-06-13T11:33:19.596Z,51.89
2016-06-13T11:34:19.600Z,52.09
2016-06-13T11:35:19.618Z,52.28
2016-06-13T11:36:19.621Z,51.87
2016-06-13T11:37:19.624Z,51.97
2016-06-13T11:38:19.643Z,51.97
2016-06-13T11:39:19.662Z,51.97
2016-06-13T11:40:19.665Z,51.87
2016-06-13T11:41:19.668Z,51.79
2016-06-13T11:42:19.686Z,51.5
2016-06-13T11:43:19.689Z,51.89
2016-06-13T11:44:19.724Z,51.79
2016-06-13T11:45:19.712Z,51.6
2016-06-13T11:46:19.714Z,51.79
2016-06-13T11:47:19.732Z,51.6
2016-06-13T11:48:19.751Z,51.6
2016-06-13T11:49:19.770Z,51.21
2016-06-13T11:50:19.773Z,51.4
2016-06-13T11:51:19.777Z,51.31
2016-06-13T11:52:19.811Z,51.4
2016-06-13T11:53:19.814Z,51.14
2016-06-13T11:54:19.817Z,51.11
2016-06-13T11:55:19.836Z,51.01
2016-06-13T11:56:19.839Z,50.63
2016-06-13T11:57:19.858Z,50.95
2016-06-13T11:58:19.876Z,50.95
2016-06-13T11:59:19.879Z,51.04
2016-06-13T12:00:19.897Z,50.85
2016-06-13T12:01:19.901Z,50.36
2016-06-13T12:02:19.920Z,50.46
2016-06-13T12:03:19.906Z,50.56
2016-06-13T12:04:19.942Z,50.46
2016-06-13T12:05:19.944Z,50.46
2016-06-13T12:06:19.962Z,50.46
2016-06-13T12:07:19.966Z,50.46
2016-06-13T12:08:19.985Z,50.65
2016-06-13T12:09:19.988Z,50.56
2016-06-13T12:10:20.007Z,50.65
2016-06-13T12:11:20.010Z,50.36
2016-06-13T12:12:20.028Z,50.63
2016-06-13T12:13:19.891Z,50.34
2016-06-13T12:14:19.909Z,50.43
2016-06-13T12:15:20.069Z,50.63
2016-06-13T12:16:19.931Z,50.82
2016-06-13T12:17:20.090Z,50.73
2016-06-13T12:18:20.094Z,51.11
2016-06-13T12:19:20.128Z,50.82
2016-06-13T12:20:20.116Z,50.82
2016-06-13T12:21:20.134Z,50.73
2016-06-13T12:22:20.137Z,50.63
2016-06-13T12:23:20.156Z,50.46
2016-06-13T12:24:20.159Z,50.43
2016-06-13T12:25:20.163Z,50.56
2016-06-13T12:26:20.181Z,50.16
2016-06-13T12:27:20.184Z,50.26
2016-06-13T12:28:20.219Z,50.07
2016-06-13T12:29:20.972Z,50.07
2016-06-13T12:30:20.240Z,50.16
2016-06-13T12:31:20.242Z,50.24
2016-06-13T12:32:20.262Z,50.14
2016-06-13T12:33:20.312Z,50.14
2016-06-13T12:34:20.340Z,50.14
2016-06-13T12:35:20.384Z,50.14
2016-06-13T12:36:20.458Z,50.04
2016-06-13T12:37:20.502Z,50.04
2016-06-13T12:38:20.525Z,50.43
2016-06-13T12:39:20.559Z,50.63
2016-06-13T12:40:20.593Z,50.8
2016-06-13T12:41:20.626Z,50.99
2016-06-13T12:42:20.644Z,50.7
2016-06-13T12:43:21.029Z,50.7
2016-06-13T12:44:21.053Z,50.53
2016-06-13T12:45:20.686Z,50.31
2016-06-13T12:46:20.709Z,50.53
2016-06-13T12:47:20.717Z,50.34
2016-06-13T12:48:20.739Z,50.63
2016-06-13T12:49:20.728Z,50.34
2016-06-13T12:50:20.749Z,50.34
2016-06-13T12:51:20.770Z,50.34
2016-06-13T12:52:20.790Z,50.14
2016-06-13T12:53:20.794Z,50.07
2016-06-13T12:54:20.798Z,49.97